sensor_id;sensor_type;location;lat;lon;timestamp;temperature;humidity
5775;DHT22;2913;51.120;6.772;2022-07-29T00:01:05;20.80;85.70
5775;DHT22;2913;51.120;6.772;2022-07-29T00:03:31;20.80;85.60
5775;DHT22;2913;51.120;6.772;2022-07-29T00:05:59;20.80;85.60
5775;DHT22;2913;51.120;6.772;2022-07-29T00:08:27;20.80;85.50
5775;DHT22;2913;51.120;6.772;2022-07-29T00:10:52;20.70;85.50
5775;DHT22;2913;51.120;6.772;2022-07-29T00:13:21;20.70;85.60
5775;DHT22;2913;51.120;6.772;2022-07-29T00:15:49;20.70;86.30
5775;DHT22;2913;51.120;6.772;2022-07-29T00:18:14;20.60;86.80
5775;DHT22;2913;51.120;6.772;2022-07-29T00:20:40;20.60;86.90
5775;DHT22;2913;51.120;6.772;2022-07-29T00:23:08;20.70;87.70
5775;DHT22;2913;51.120;6.772;2022-07-29T00:25:36;20.60;88.90
5775;DHT22;2913;51.120;6.772;2022-07-29T00:28:02;20.60;90.50
5775;DHT22;2913;51.120;6.772;2022-07-29T00:30:30;20.60;90.30
5775;DHT22;2913;51.120;6.772;2022-07-29T00:32:56;20.60;90.10
5775;DHT22;2913;51.120;6.772;2022-07-29T00:35:21;20.60;90.20
5775;DHT22;2913;51.120;6.772;2022-07-29T00:38:08;20.60;90.00
5775;DHT22;2913;51.120;6.772;2022-07-29T00:40:33;20.50;90.10
5775;DHT22;2913;51.120;6.772;2022-07-29T00:42:59;20.50;89.60
5775;DHT22;2913;51.120;6.772;2022-07-29T00:45:25;20.50;89.50
5775;DHT22;2913;51.120;6.772;2022-07-29T00:47:50;20.50;89.50
5775;DHT22;2913;51.120;6.772;2022-07-29T00:50:17;20.40;89.00
5775;DHT22;2913;51.120;6.772;2022-07-29T00:52:45;20.40;89.30
5775;DHT22;2913;51.120;6.772;2022-07-29T00:55:13;20.40;89.30
5775;DHT22;2913;51.120;6.772;2022-07-29T00:57:43;20.40;89.20
5775;DHT22;2913;51.120;6.772;2022-07-29T01:00:15;20.40;89.10
5775;DHT22;2913;51.120;6.772;2022-07-29T01:02:44;20.50;89.00
5775;DHT22;2913;51.120;6.772;2022-07-29T01:05:14;20.40;88.90
5775;DHT22;2913;51.120;6.772;2022-07-29T01:07:41;20.50;89.10
5775;DHT22;2913;51.120;6.772;2022-07-29T01:10:09;20.40;89.10
5775;DHT22;2913;51.120;6.772;2022-07-29T01:12:38;20.40;89.20
5775;DHT22;2913;51.120;6.772;2022-07-29T01:15:08;20.30;89.40
5775;DHT22;2913;51.120;6.772;2022-07-29T01:17:43;20.30;89.70
5775;DHT22;2913;51.120;6.772;2022-07-29T01:31:30;20.40;90.70
5775;DHT22;2913;51.120;6.772;2022-07-29T01:34:03;20.40;91.20
5775;DHT22;2913;51.120;6.772;2022-07-29T01:36:33;20.40;91.60
5775;DHT22;2913;51.120;6.772;2022-07-29T01:39:16;20.40;92.30
5775;DHT22;2913;51.120;6.772;2022-07-29T01:48:02;20.30;95.30
5775;DHT22;2913;51.120;6.772;2022-07-29T01:50:40;20.10;96.70
5775;DHT22;2913;51.120;6.772;2022-07-29T01:53:11;20.10;96.90
5775;DHT22;2913;51.120;6.772;2022-07-29T01:55:44;20.10;97.10
5775;DHT22;2913;51.120;6.772;2022-07-29T01:58:11;20.00;97.20
5775;DHT22;2913;51.120;6.772;2022-07-29T02:00:38;20.10;97.40
5775;DHT22;2913;51.120;6.772;2022-07-29T02:03:09;20.00;97.70
5775;DHT22;2913;51.120;6.772;2022-07-29T02:05:38;19.90;98.50
5775;DHT22;2913;51.120;6.772;2022-07-29T02:08:05;20.00;98.70
5775;DHT22;2913;51.120;6.772;2022-07-29T02:10:35;20.00;98.60
5775;DHT22;2913;51.120;6.772;2022-07-29T02:13:02;20.00;98.90
5775;DHT22;2913;51.120;6.772;2022-07-29T02:15:30;20.00;99.40
5775;DHT22;2913;51.120;6.772;2022-07-29T02:18:06;19.90;99.40
5775;DHT22;2913;51.120;6.772;2022-07-29T02:20:33;19.90;99.90
5775;DHT22;2913;51.120;6.772;2022-07-29T02:23:00;19.80;99.90
5775;DHT22;2913;51.120;6.772;2022-07-29T02:25:30;19.80;99.90
5775;DHT22;2913;51.120;6.772;2022-07-29T02:27:59;19.80;99.90
5775;DHT22;2913;51.120;6.772;2022-07-29T02:30:27;19.90;99.90
5775;DHT22;2913;51.120;6.772;2022-07-29T02:32:53;19.80;99.90
5775;DHT22;2913;51.120;6.772;2022-07-29T02:35:21;19.80;99.90
5775;DHT22;2913;51.120;6.772;2022-07-29T02:37:47;19.80;99.90
5775;DHT22;2913;51.120;6.772;2022-07-29T02:40:35;19.80;99.90
5775;DHT22;2913;51.120;6.772;2022-07-29T02:43:06;19.70;99.90
5775;DHT22;2913;51.120;6.772;2022-07-29T02:45:33;19.60;99.90
5775;DHT22;2913;51.120;6.772;2022-07-29T02:48:01;19.60;99.90
5775;DHT22;2913;51.120;6.772;2022-07-29T02:50:33;19.50;99.90
5775;DHT22;2913;51.120;6.772;2022-07-29T02:55:42;19.40;99.90
5775;DHT22;2913;51.120;6.772;2022-07-29T02:58:31;19.40;99.90
5775;DHT22;2913;51.120;6.772;2022-07-29T03:01:04;19.40;99.90
5775;DHT22;2913;51.120;6.772;2022-07-29T03:03:38;19.40;99.90
5775;DHT22;2913;51.120;6.772;2022-07-29T03:06:05;19.40;99.90
5775;DHT22;2913;51.120;6.772;2022-07-29T03:08:32;19.40;99.90
5775;DHT22;2913;51.120;6.772;2022-07-29T03:10:58;19.30;99.90
5775;DHT22;2913;51.120;6.772;2022-07-29T03:13:25;19.20;99.90
5775;DHT22;2913;51.120;6.772;2022-07-29T03:15:51;19.00;99.90
5775;DHT22;2913;51.120;6.772;2022-07-29T03:18:17;18.90;99.90
5775;DHT22;2913;51.120;6.772;2022-07-29T03:20:45;18.70;99.90
5775;DHT22;2913;51.120;6.772;2022-07-29T03:23:11;18.60;99.90
5775;DHT22;2913;51.120;6.772;2022-07-29T03:25:37;18.30;99.90
5775;DHT22;2913;51.120;6.772;2022-07-29T03:28:03;18.00;99.90
5775;DHT22;2913;51.120;6.772;2022-07-29T03:30:28;18.00;99.90
5775;DHT22;2913;51.120;6.772;2022-07-29T03:32:56;17.60;99.90
5775;DHT22;2913;51.120;6.772;2022-07-29T03:35:24;17.50;99.90
5775;DHT22;2913;51.120;6.772;2022-07-29T03:37:52;17.30;99.90
5775;DHT22;2913;51.120;6.772;2022-07-29T03:40:26;17.20;99.90
5775;DHT22;2913;51.120;6.772;2022-07-29T03:42:58;17.10;99.90
5775;DHT22;2913;51.120;6.772;2022-07-29T03:45:25;17.00;99.90
5775;DHT22;2913;51.120;6.772;2022-07-29T03:47:56;17.10;99.90
5775;DHT22;2913;51.120;6.772;2022-07-29T03:50:22;17.00;99.90
5775;DHT22;2913;51.120;6.772;2022-07-29T03:52:50;16.90;99.90
5775;DHT22;2913;51.120;6.772;2022-07-29T03:55:16;16.60;99.90
5775;DHT22;2913;51.120;6.772;2022-07-29T03:57:44;16.70;99.90
5775;DHT22;2913;51.120;6.772;2022-07-29T04:00:11;16.50;99.90
5775;DHT22;2913;51.120;6.772;2022-07-29T04:02:38;16.60;99.90
5775;DHT22;2913;51.120;6.772;2022-07-29T04:05:14;16.70;99.90
5775;DHT22;2913;51.120;6.772;2022-07-29T04:07:47;16.70;99.90
5775;DHT22;2913;51.120;6.772;2022-07-29T04:10:16;16.80;99.90
5775;DHT22;2913;51.120;6.772;2022-07-29T04:12:44;16.90;99.90
5775;DHT22;2913;51.120;6.772;2022-07-29T04:15:10;16.90;99.90
5775;DHT22;2913;51.120;6.772;2022-07-29T04:17:36;16.90;99.90
5775;DHT22;2913;51.120;6.772;2022-07-29T04:20:03;16.90;99.90
5775;DHT22;2913;51.120;6.772;2022-07-29T04:22:29;16.90;99.90
5775;DHT22;2913;51.120;6.772;2022-07-29T04:24:57;16.90;99.90
5775;DHT22;2913;51.120;6.772;2022-07-29T04:27:23;16.90;99.90
5775;DHT22;2913;51.120;6.772;2022-07-29T04:29:49;16.70;99.90
5775;DHT22;2913;51.120;6.772;2022-07-29T04:32:15;16.60;99.90
5775;DHT22;2913;51.120;6.772;2022-07-29T04:34:40;16.60;99.90
5775;DHT22;2913;51.120;6.772;2022-07-29T04:37:08;16.60;99.90
5775;DHT22;2913;51.120;6.772;2022-07-29T04:39:34;16.60;99.90
5775;DHT22;2913;51.120;6.772;2022-07-29T04:41:59;16.70;99.90
5775;DHT22;2913;51.120;6.772;2022-07-29T04:44:25;16.80;99.90
5775;DHT22;2913;51.120;6.772;2022-07-29T04:46:53;16.90;99.90
5775;DHT22;2913;51.120;6.772;2022-07-29T04:49:19;16.90;99.90
5775;DHT22;2913;51.120;6.772;2022-07-29T04:51:44;16.90;99.90
5775;DHT22;2913;51.120;6.772;2022-07-29T04:54:10;17.00;99.90
5775;DHT22;2913;51.120;6.772;2022-07-29T04:56:36;16.90;99.90
5775;DHT22;2913;51.120;6.772;2022-07-29T04:59:01;17.00;99.90
5775;DHT22;2913;51.120;6.772;2022-07-29T05:01:29;17.00;99.90
5775;DHT22;2913;51.120;6.772;2022-07-29T05:03:55;17.00;99.90
5775;DHT22;2913;51.120;6.772;2022-07-29T05:06:23;16.90;99.90
5775;DHT22;2913;51.120;6.772;2022-07-29T05:08:51;16.90;99.90
5775;DHT22;2913;51.120;6.772;2022-07-29T05:11:16;17.00;99.90
5775;DHT22;2913;51.120;6.772;2022-07-29T05:13:44;17.00;99.90
5775;DHT22;2913;51.120;6.772;2022-07-29T05:16:10;17.10;99.90
5775;DHT22;2913;51.120;6.772;2022-07-29T05:18:38;17.10;99.90
5775;DHT22;2913;51.120;6.772;2022-07-29T05:21:07;17.10;99.90
5775;DHT22;2913;51.120;6.772;2022-07-29T05:23:32;17.10;99.90
5775;DHT22;2913;51.120;6.772;2022-07-29T05:25:58;17.10;99.90
5775;DHT22;2913;51.120;6.772;2022-07-29T05:28:24;17.30;99.90
5775;DHT22;2913;51.120;6.772;2022-07-29T05:30:51;17.30;99.90
5775;DHT22;2913;51.120;6.772;2022-07-29T05:33:17;17.10;99.90
5775;DHT22;2913;51.120;6.772;2022-07-29T05:35:45;17.20;99.90
5775;DHT22;2913;51.120;6.772;2022-07-29T05:38:13;17.20;99.90
5775;DHT22;2913;51.120;6.772;2022-07-29T05:40:39;17.20;99.90
5775;DHT22;2913;51.120;6.772;2022-07-29T05:43:04;17.40;99.90
5775;DHT22;2913;51.120;6.772;2022-07-29T05:45:32;17.40;99.90
5775;DHT22;2913;51.120;6.772;2022-07-29T05:47:58;17.40;99.90
5775;DHT22;2913;51.120;6.772;2022-07-29T05:50:23;17.50;99.90
5775;DHT22;2913;51.120;6.772;2022-07-29T05:52:49;17.70;99.90
5775;DHT22;2913;51.120;6.772;2022-07-29T05:55:17;17.80;99.90
5775;DHT22;2913;51.120;6.772;2022-07-29T05:57:43;18.00;99.90
5775;DHT22;2913;51.120;6.772;2022-07-29T06:00:11;18.00;99.90
5775;DHT22;2913;51.120;6.772;2022-07-29T06:02:39;18.20;99.90
5775;DHT22;2913;51.120;6.772;2022-07-29T06:05:07;18.30;99.90
5775;DHT22;2913;51.120;6.772;2022-07-29T06:07:33;18.20;99.90
5775;DHT22;2913;51.120;6.772;2022-07-29T06:09:59;18.20;99.90
5775;DHT22;2913;51.120;6.772;2022-07-29T06:12:25;18.30;99.90
5775;DHT22;2913;51.120;6.772;2022-07-29T06:14:50;18.30;99.90
5775;DHT22;2913;51.120;6.772;2022-07-29T06:17:19;18.40;99.90
5775;DHT22;2913;51.120;6.772;2022-07-29T06:19:46;18.40;99.90
5775;DHT22;2913;51.120;6.772;2022-07-29T06:22:12;18.50;99.90
5775;DHT22;2913;51.120;6.772;2022-07-29T06:24:42;18.50;99.90
5775;DHT22;2913;51.120;6.772;2022-07-29T06:27:10;18.60;99.90
5775;DHT22;2913;51.120;6.772;2022-07-29T06:29:36;18.50;99.90
5775;DHT22;2913;51.120;6.772;2022-07-29T06:32:02;18.60;99.90
5775;DHT22;2913;51.120;6.772;2022-07-29T06:34:27;18.50;99.90
5775;DHT22;2913;51.120;6.772;2022-07-29T06:36:53;18.60;99.90
5775;DHT22;2913;51.120;6.772;2022-07-29T06:39:19;18.60;99.90
5775;DHT22;2913;51.120;6.772;2022-07-29T06:41:49;18.60;99.90
5775;DHT22;2913;51.120;6.772;2022-07-29T06:44:17;18.60;99.90
5775;DHT22;2913;51.120;6.772;2022-07-29T06:46:43;18.50;99.90
5775;DHT22;2913;51.120;6.772;2022-07-29T06:49:09;18.40;99.90
5775;DHT22;2913;51.120;6.772;2022-07-29T06:51:35;18.50;99.90
5775;DHT22;2913;51.120;6.772;2022-07-29T06:54:01;18.40;99.90
5775;DHT22;2913;51.120;6.772;2022-07-29T06:56:34;18.40;99.90
5775;DHT22;2913;51.120;6.772;2022-07-29T06:59:04;18.40;99.90
5775;DHT22;2913;51.120;6.772;2022-07-29T07:01:30;18.40;99.90
5775;DHT22;2913;51.120;6.772;2022-07-29T07:03:56;18.50;99.90
5775;DHT22;2913;51.120;6.772;2022-07-29T07:06:22;18.50;99.90
5775;DHT22;2913;51.120;6.772;2022-07-29T07:08:47;18.50;99.90
5775;DHT22;2913;51.120;6.772;2022-07-29T07:11:15;18.50;99.90
5775;DHT22;2913;51.120;6.772;2022-07-29T07:13:41;18.50;99.90
5775;DHT22;2913;51.120;6.772;2022-07-29T07:16:06;18.50;99.90
5775;DHT22;2913;51.120;6.772;2022-07-29T07:18:32;18.50;99.90
5775;DHT22;2913;51.120;6.772;2022-07-29T07:20:59;18.40;99.90
5775;DHT22;2913;51.120;6.772;2022-07-29T07:23:24;18.40;99.90
5775;DHT22;2913;51.120;6.772;2022-07-29T07:25:50;18.40;99.90
5775;DHT22;2913;51.120;6.772;2022-07-29T07:28:16;18.40;99.90
5775;DHT22;2913;51.120;6.772;2022-07-29T07:30:45;18.30;99.90
5775;DHT22;2913;51.120;6.772;2022-07-29T07:33:10;18.40;99.90
5775;DHT22;2913;51.120;6.772;2022-07-29T07:35:36;18.20;99.90
5775;DHT22;2913;51.120;6.772;2022-07-29T07:38:02;18.10;99.90
5775;DHT22;2913;51.120;6.772;2022-07-29T07:40:30;18.10;99.90
5775;DHT22;2913;51.120;6.772;2022-07-29T07:42:56;18.10;99.90
5775;DHT22;2913;51.120;6.772;2022-07-29T07:45:22;18.00;99.90
5775;DHT22;2913;51.120;6.772;2022-07-29T07:47:49;18.00;99.90
5775;DHT22;2913;51.120;6.772;2022-07-29T07:50:18;18.10;99.90
5775;DHT22;2913;51.120;6.772;2022-07-29T07:52:48;18.00;99.90
5775;DHT22;2913;51.120;6.772;2022-07-29T07:55:16;18.00;99.90
5775;DHT22;2913;51.120;6.772;2022-07-29T07:57:42;18.00;99.90
5775;DHT22;2913;51.120;6.772;2022-07-29T08:00:08;17.90;99.90
5775;DHT22;2913;51.120;6.772;2022-07-29T08:02:34;18.00;99.90
5775;DHT22;2913;51.120;6.772;2022-07-29T08:05:00;18.10;99.90
5775;DHT22;2913;51.120;6.772;2022-07-29T08:07:25;18.10;99.90
5775;DHT22;2913;51.120;6.772;2022-07-29T08:09:51;18.20;99.90
5775;DHT22;2913;51.120;6.772;2022-07-29T08:12:17;18.10;99.90
5775;DHT22;2913;51.120;6.772;2022-07-29T08:14:42;18.30;99.90
5775;DHT22;2913;51.120;6.772;2022-07-29T08:17:08;18.40;99.90
5775;DHT22;2913;51.120;6.772;2022-07-29T08:19:33;18.40;99.90
5775;DHT22;2913;51.120;6.772;2022-07-29T08:22:02;18.50;99.90
5775;DHT22;2913;51.120;6.772;2022-07-29T08:24:27;18.50;99.90
5775;DHT22;2913;51.120;6.772;2022-07-29T08:27:12;18.60;99.90
5775;DHT22;2913;51.120;6.772;2022-07-29T08:29:39;18.50;99.90
5775;DHT22;2913;51.120;6.772;2022-07-29T08:32:05;18.50;99.90
5775;DHT22;2913;51.120;6.772;2022-07-29T08:34:33;18.50;99.90
5775;DHT22;2913;51.120;6.772;2022-07-29T08:36:59;18.50;99.90
5775;DHT22;2913;51.120;6.772;2022-07-29T08:39:25;18.40;99.90
5775;DHT22;2913;51.120;6.772;2022-07-29T08:41:51;18.60;99.90
5775;DHT22;2913;51.120;6.772;2022-07-29T08:44:18;18.70;99.90
5775;DHT22;2913;51.120;6.772;2022-07-29T08:46:44;18.80;99.90
5775;DHT22;2913;51.120;6.772;2022-07-29T08:49:12;18.70;99.90
5775;DHT22;2913;51.120;6.772;2022-07-29T08:51:40;18.90;99.90
5775;DHT22;2913;51.120;6.772;2022-07-29T08:54:09;18.90;99.90
5775;DHT22;2913;51.120;6.772;2022-07-29T08:56:36;19.00;99.90
5775;DHT22;2913;51.120;6.772;2022-07-29T08:59:07;19.10;99.90
5775;DHT22;2913;51.120;6.772;2022-07-29T09:01:37;19.00;99.90
5775;DHT22;2913;51.120;6.772;2022-07-29T09:04:07;19.10;99.90
5775;DHT22;2913;51.120;6.772;2022-07-29T09:06:41;19.10;99.90
5775;DHT22;2913;51.120;6.772;2022-07-29T09:09:08;19.20;99.90
5775;DHT22;2913;51.120;6.772;2022-07-29T09:11:33;19.20;99.90
5775;DHT22;2913;51.120;6.772;2022-07-29T09:13:59;19.30;99.90
5775;DHT22;2913;51.120;6.772;2022-07-29T09:16:25;19.40;99.90
5775;DHT22;2913;51.120;6.772;2022-07-29T09:18:51;19.50;99.90
5775;DHT22;2913;51.120;6.772;2022-07-29T09:21:18;19.50;99.90
5775;DHT22;2913;51.120;6.772;2022-07-29T09:24:08;19.60;99.90
5775;DHT22;2913;51.120;6.772;2022-07-29T09:26:36;19.60;99.90
5775;DHT22;2913;51.120;6.772;2022-07-29T09:29:17;19.60;99.90
5775;DHT22;2913;51.120;6.772;2022-07-29T09:31:44;19.60;99.90
5775;DHT22;2913;51.120;6.772;2022-07-29T09:34:14;19.60;99.90
5775;DHT22;2913;51.120;6.772;2022-07-29T09:36:45;19.60;99.90
5775;DHT22;2913;51.120;6.772;2022-07-29T09:39:12;19.60;99.90
5775;DHT22;2913;51.120;6.772;2022-07-29T09:41:51;19.60;99.90
5775;DHT22;2913;51.120;6.772;2022-07-29T09:44:22;19.60;99.90
5775;DHT22;2913;51.120;6.772;2022-07-29T09:46:57;19.70;99.90
5775;DHT22;2913;51.120;6.772;2022-07-29T09:49:24;19.80;99.90
5775;DHT22;2913;51.120;6.772;2022-07-29T09:52:07;19.70;99.90
5775;DHT22;2913;51.120;6.772;2022-07-29T09:54:36;19.80;99.90
5775;DHT22;2913;51.120;6.772;2022-07-29T09:57:06;19.80;99.90
5775;DHT22;2913;51.120;6.772;2022-07-29T09:59:34;19.90;99.90
5775;DHT22;2913;51.120;6.772;2022-07-29T10:02:00;19.90;99.90
5775;DHT22;2913;51.120;6.772;2022-07-29T10:04:41;20.00;99.90
5775;DHT22;2913;51.120;6.772;2022-07-29T10:07:07;20.00;99.90
5775;DHT22;2913;51.120;6.772;2022-07-29T10:09:35;20.10;99.90
5775;DHT22;2913;51.120;6.772;2022-07-29T10:12:11;20.20;99.90
5775;DHT22;2913;51.120;6.772;2022-07-29T10:14:39;20.30;99.90
5775;DHT22;2913;51.120;6.772;2022-07-29T10:17:06;20.40;99.90
5775;DHT22;2913;51.120;6.772;2022-07-29T10:19:33;20.50;99.90
5775;DHT22;2913;51.120;6.772;2022-07-29T10:22:00;20.50;99.90
5775;DHT22;2913;51.120;6.772;2022-07-29T10:24:30;20.60;99.90
5775;DHT22;2913;51.120;6.772;2022-07-29T10:27:00;20.70;99.90
5775;DHT22;2913;51.120;6.772;2022-07-29T10:29:27;20.80;99.90
5775;DHT22;2913;51.120;6.772;2022-07-29T10:32:21;20.80;99.90
5775;DHT22;2913;51.120;6.772;2022-07-29T10:35:19;20.90;99.90
5775;DHT22;2913;51.120;6.772;2022-07-29T10:38:21;21.00;99.90
5775;DHT22;2913;51.120;6.772;2022-07-29T10:41:00;21.10;99.90
5775;DHT22;2913;51.120;6.772;2022-07-29T10:43:46;21.20;99.90
5775;DHT22;2913;51.120;6.772;2022-07-29T10:46:15;21.20;99.90
5775;DHT22;2913;51.120;6.772;2022-07-29T10:52:00;21.30;99.90
5775;DHT22;2913;51.120;6.772;2022-07-29T10:57:30;21.40;99.90
5775;DHT22;2913;51.120;6.772;2022-07-29T11:05:06;21.90;99.90
5775;DHT22;2913;51.120;6.772;2022-07-29T11:07:34;22.10;99.90
5775;DHT22;2913;51.120;6.772;2022-07-29T11:15:04;22.70;99.90
5775;DHT22;2913;51.120;6.772;2022-07-29T11:20:43;22.90;99.90
5775;DHT22;2913;51.120;6.772;2022-07-29T11:23:22;23.00;99.90
5775;DHT22;2913;51.120;6.772;2022-07-29T11:31:16;22.80;99.90
5775;DHT22;2913;51.120;6.772;2022-07-29T11:33:46;23.10;99.90
5775;DHT22;2913;51.120;6.772;2022-07-29T11:36:14;23.20;99.90
5775;DHT22;2913;51.120;6.772;2022-07-29T11:38:42;23.10;99.90
5775;DHT22;2913;51.120;6.772;2022-07-29T11:41:24;23.30;99.90
5775;DHT22;2913;51.120;6.772;2022-07-29T11:43:57;23.40;97.90
5775;DHT22;2913;51.120;6.772;2022-07-29T11:46:43;23.50;97.10
5775;DHT22;2913;51.120;6.772;2022-07-29T11:49:09;23.30;95.90
5775;DHT22;2913;51.120;6.772;2022-07-29T11:51:39;23.50;97.90
5775;DHT22;2913;51.120;6.772;2022-07-29T11:54:05;23.70;99.50
5775;DHT22;2913;51.120;6.772;2022-07-29T11:56:34;23.60;97.80
5775;DHT22;2913;51.120;6.772;2022-07-29T11:59:06;23.90;97.20
5775;DHT22;2913;51.120;6.772;2022-07-29T12:01:34;24.00;95.90
5775;DHT22;2913;51.120;6.772;2022-07-29T12:04:08;24.00;95.30
5775;DHT22;2913;51.120;6.772;2022-07-29T12:06:36;24.00;93.10
5775;DHT22;2913;51.120;6.772;2022-07-29T12:09:08;23.90;94.40
5775;DHT22;2913;51.120;6.772;2022-07-29T12:11:34;24.10;95.10
5775;DHT22;2913;51.120;6.772;2022-07-29T12:14:00;24.10;94.00
5775;DHT22;2913;51.120;6.772;2022-07-29T12:16:37;24.10;94.30
5775;DHT22;2913;51.120;6.772;2022-07-29T12:19:05;24.10;94.70
5775;DHT22;2913;51.120;6.772;2022-07-29T12:21:50;24.10;95.80
5775;DHT22;2913;51.120;6.772;2022-07-29T12:24:18;24.00;98.00
5775;DHT22;2913;51.120;6.772;2022-07-29T12:26:58;24.30;99.90
5775;DHT22;2913;51.120;6.772;2022-07-29T12:29:24;24.50;99.90
5775;DHT22;2913;51.120;6.772;2022-07-29T12:31:53;24.50;99.90
5775;DHT22;2913;51.120;6.772;2022-07-29T12:34:21;24.40;99.90
5775;DHT22;2913;51.120;6.772;2022-07-29T12:36:50;24.40;99.90
5775;DHT22;2913;51.120;6.772;2022-07-29T12:39:18;24.40;99.90
5775;DHT22;2913;51.120;6.772;2022-07-29T12:41:44;24.40;99.90
5775;DHT22;2913;51.120;6.772;2022-07-29T12:44:11;24.30;99.90
5775;DHT22;2913;51.120;6.772;2022-07-29T12:46:36;24.30;99.90
5775;DHT22;2913;51.120;6.772;2022-07-29T12:49:05;24.40;99.90
5775;DHT22;2913;51.120;6.772;2022-07-29T12:51:36;24.50;99.90
5775;DHT22;2913;51.120;6.772;2022-07-29T12:54:12;24.70;99.90
5775;DHT22;2913;51.120;6.772;2022-07-29T12:56:43;24.80;99.90
5775;DHT22;2913;51.120;6.772;2022-07-29T12:59:16;24.70;97.10
5775;DHT22;2913;51.120;6.772;2022-07-29T13:01:45;24.90;96.60
5775;DHT22;2913;51.120;6.772;2022-07-29T13:04:25;24.90;94.80
5775;DHT22;2913;51.120;6.772;2022-07-29T13:07:07;25.20;94.50
5775;DHT22;2913;51.120;6.772;2022-07-29T13:09:41;25.20;93.70
5775;DHT22;2913;51.120;6.772;2022-07-29T13:12:12;25.00;93.10
5775;DHT22;2913;51.120;6.772;2022-07-29T13:14:41;25.10;93.50
5775;DHT22;2913;51.120;6.772;2022-07-29T13:17:10;25.30;92.30
5775;DHT22;2913;51.120;6.772;2022-07-29T13:19:43;25.30;92.00
5775;DHT22;2913;51.120;6.772;2022-07-29T13:22:10;25.50;91.80
5775;DHT22;2913;51.120;6.772;2022-07-29T13:25:05;25.40;91.40
5775;DHT22;2913;51.120;6.772;2022-07-29T13:27:36;25.20;93.20
5775;DHT22;2913;51.120;6.772;2022-07-29T13:30:04;25.40;92.70
5775;DHT22;2913;51.120;6.772;2022-07-29T13:32:31;25.50;92.80
5775;DHT22;2913;51.120;6.772;2022-07-29T13:34:58;25.60;92.90
5775;DHT22;2913;51.120;6.772;2022-07-29T13:37:24;25.50;93.40
5775;DHT22;2913;51.120;6.772;2022-07-29T13:39:51;25.40;92.90
5775;DHT22;2913;51.120;6.772;2022-07-29T13:42:23;25.40;93.20
5775;DHT22;2913;51.120;6.772;2022-07-29T13:44:52;25.70;93.60
5775;DHT22;2913;51.120;6.772;2022-07-29T13:47:22;25.80;92.60
5775;DHT22;2913;51.120;6.772;2022-07-29T13:49:48;25.90;92.50
5775;DHT22;2913;51.120;6.772;2022-07-29T13:52:14;25.90;91.80
5775;DHT22;2913;51.120;6.772;2022-07-29T13:54:41;25.80;90.90
5775;DHT22;2913;51.120;6.772;2022-07-29T13:57:07;26.00;90.80
5775;DHT22;2913;51.120;6.772;2022-07-29T13:59:33;25.90;90.20
5775;DHT22;2913;51.120;6.772;2022-07-29T14:02:03;26.00;89.40
5775;DHT22;2913;51.120;6.772;2022-07-29T14:04:31;25.90;90.50
5775;DHT22;2913;51.120;6.772;2022-07-29T14:06:59;26.00;90.20
5775;DHT22;2913;51.120;6.772;2022-07-29T14:09:25;25.60;89.20
5775;DHT22;2913;51.120;6.772;2022-07-29T14:11:50;25.90;90.80
5775;DHT22;2913;51.120;6.772;2022-07-29T14:14:18;25.90;90.40
5775;DHT22;2913;51.120;6.772;2022-07-29T14:16:44;25.80;89.90
5775;DHT22;2913;51.120;6.772;2022-07-29T14:19:12;26.00;90.10
5775;DHT22;2913;51.120;6.772;2022-07-29T14:21:38;26.00;88.70
5775;DHT22;2913;51.120;6.772;2022-07-29T14:24:05;26.10;88.10
5775;DHT22;2913;51.120;6.772;2022-07-29T14:26:31;26.00;88.90
5775;DHT22;2913;51.120;6.772;2022-07-29T14:28:59;26.00;87.50
5775;DHT22;2913;51.120;6.772;2022-07-29T14:31:25;25.80;86.70
5775;DHT22;2913;51.120;6.772;2022-07-29T14:33:50;25.90;87.20
5775;DHT22;2913;51.120;6.772;2022-07-29T14:36:16;26.00;87.20
5775;DHT22;2913;51.120;6.772;2022-07-29T14:38:41;26.20;87.30
5775;DHT22;2913;51.120;6.772;2022-07-29T14:41:07;26.30;86.60
5775;DHT22;2913;51.120;6.772;2022-07-29T14:43:36;26.40;86.70
5775;DHT22;2913;51.120;6.772;2022-07-29T14:46:01;26.30;85.40
5775;DHT22;2913;51.120;6.772;2022-07-29T14:48:27;26.10;85.90
5775;DHT22;2913;51.120;6.772;2022-07-29T14:50:53;26.10;86.10
5775;DHT22;2913;51.120;6.772;2022-07-29T14:53:20;26.20;85.30
5775;DHT22;2913;51.120;6.772;2022-07-29T14:55:48;26.00;84.70
5775;DHT22;2913;51.120;6.772;2022-07-29T14:58:16;25.90;84.60
5775;DHT22;2913;51.120;6.772;2022-07-29T15:00:45;25.60;85.40
5775;DHT22;2913;51.120;6.772;2022-07-29T15:03:10;25.70;84.40
5775;DHT22;2913;51.120;6.772;2022-07-29T15:05:36;25.50;81.50
5775;DHT22;2913;51.120;6.772;2022-07-29T15:08:04;25.80;82.80
5775;DHT22;2913;51.120;6.772;2022-07-29T15:10:30;25.90;83.00
5775;DHT22;2913;51.120;6.772;2022-07-29T15:12:58;25.90;82.60
5775;DHT22;2913;51.120;6.772;2022-07-29T15:15:24;25.70;81.70
5775;DHT22;2913;51.120;6.772;2022-07-29T15:17:49;25.40;80.80
5775;DHT22;2913;51.120;6.772;2022-07-29T15:20:17;25.40;80.90
5775;DHT22;2913;51.120;6.772;2022-07-29T15:22:43;25.50;82.60
5775;DHT22;2913;51.120;6.772;2022-07-29T15:25:09;25.40;80.40
5775;DHT22;2913;51.120;6.772;2022-07-29T15:27:37;25.20;78.10
5775;DHT22;2913;51.120;6.772;2022-07-29T15:30:03;25.30;79.80
5775;DHT22;2913;51.120;6.772;2022-07-29T15:32:29;25.10;78.20
5775;DHT22;2913;51.120;6.772;2022-07-29T15:34:54;25.10;78.20
5775;DHT22;2913;51.120;6.772;2022-07-29T15:37:20;25.20;78.30
5775;DHT22;2913;51.120;6.772;2022-07-29T15:39:46;25.20;78.30
5775;DHT22;2913;51.120;6.772;2022-07-29T15:42:14;24.90;76.20
5775;DHT22;2913;51.120;6.772;2022-07-29T15:44:42;24.80;78.20
5775;DHT22;2913;51.120;6.772;2022-07-29T15:47:10;25.00;78.20
5775;DHT22;2913;51.120;6.772;2022-07-29T15:49:39;25.30;77.40
5775;DHT22;2913;51.120;6.772;2022-07-29T15:52:07;25.30;76.50
5775;DHT22;2913;51.120;6.772;2022-07-29T15:54:37;25.30;76.60
5775;DHT22;2913;51.120;6.772;2022-07-29T15:57:04;25.40;75.50
5775;DHT22;2913;51.120;6.772;2022-07-29T15:59:33;25.40;76.20
5775;DHT22;2913;51.120;6.772;2022-07-29T16:01:59;25.30;77.00
5775;DHT22;2913;51.120;6.772;2022-07-29T16:04:25;25.40;76.30
5775;DHT22;2913;51.120;6.772;2022-07-29T16:06:51;25.40;76.30
5775;DHT22;2913;51.120;6.772;2022-07-29T16:09:18;25.40;76.50
5775;DHT22;2913;51.120;6.772;2022-07-29T16:11:44;25.50;76.30
5775;DHT22;2913;51.120;6.772;2022-07-29T16:14:16;25.60;77.20
5775;DHT22;2913;51.120;6.772;2022-07-29T16:16:44;25.70;76.90
5775;DHT22;2913;51.120;6.772;2022-07-29T16:19:10;25.80;76.80
5775;DHT22;2913;51.120;6.772;2022-07-29T16:21:39;25.70;76.80
5775;DHT22;2913;51.120;6.772;2022-07-29T16:24:07;25.60;77.10
5775;DHT22;2913;51.120;6.772;2022-07-29T16:26:33;25.40;77.30
5775;DHT22;2913;51.120;6.772;2022-07-29T16:28:59;25.40;78.30
5775;DHT22;2913;51.120;6.772;2022-07-29T16:31:27;25.50;78.20
5775;DHT22;2913;51.120;6.772;2022-07-29T16:33:53;25.60;78.00
5775;DHT22;2913;51.120;6.772;2022-07-29T16:36:22;25.60;78.10
5775;DHT22;2913;51.120;6.772;2022-07-29T16:38:48;25.60;78.50
5775;DHT22;2913;51.120;6.772;2022-07-29T16:41:17;25.40;79.20
5775;DHT22;2913;51.120;6.772;2022-07-29T16:43:45;25.40;79.50
5775;DHT22;2913;51.120;6.772;2022-07-29T16:46:11;25.30;79.40
5775;DHT22;2913;51.120;6.772;2022-07-29T16:48:36;25.30;80.60
5775;DHT22;2913;51.120;6.772;2022-07-29T16:51:06;25.20;80.80
5775;DHT22;2913;51.120;6.772;2022-07-29T16:53:33;25.00;81.50
5775;DHT22;2913;51.120;6.772;2022-07-29T16:56:01;24.90;82.30